Time;durP1;ratioP1;P1;durP2;ratioP2;P2;SDS_P1;SDS_P2;PMS_P1;PMS_P2;Temp;Humidity;BMP_temperature;BMP_pressure;BME280_temperature;BME280_humidity;BME280_pressure;Samples;Min_cycle;Max_cycle;Signal;HPM_P1;HPM_P2
2022/11/02 00:00:29;;;;;;;6.40;1.30;;;17.30;56.70;;;;;;5041973;28;20033;-53
2022/11/02 00:02:58;;;;;;;9.13;1.50;;;17.20;56.70;;;;;;5045782;28;20040;-53
2022/11/02 00:05:30;;;;;;;9.55;2.72;;;17.30;56.70;;;;;;5049737;28;20099;-52
2022/11/02 00:08:04;;;;;;;6.03;1.00;;;17.20;56.70;;;;;;5033354;28;20041;-54
2022/11/02 00:10:31;;;;;;;6.53;1.52;;;17.20;56.70;;;;;;5038569;28;20046;-53
2022/11/02 00:13:05;;;;;;;3.20;1.02;;;17.20;57.30;;;;;;5046533;28;20565;-54
2022/11/02 00:15:34;;;;;;;7.78;2.30;;;17.20;56.90;;;;;;5037443;28;20157;-54
2022/11/02 00:18:11;;;;;;;10.10;1.40;;;17.10;57.00;;;;;;5037252;28;20497;-53
2022/11/02 00:20:42;;;;;;;5.25;1.15;;;17.20;57.20;;;;;;5037236;28;20037;-53
2022/11/02 00:23:13;;;;;;;6.25;1.45;;;17.10;57.20;;;;;;5032716;28;20045;-52
2022/11/02 00:25:47;;;;;;;6.00;1.55;;;17.10;57.30;;;;;;5033057;28;20065;-53
2022/11/02 00:28:16;;;;;;;4.97;0.90;;;17.10;57.30;;;;;;5037109;28;20041;-54
2022/11/02 00:30:45;;;;;;;3.05;1.30;;;17.10;57.40;;;;;;5036378;28;20108;-54
2022/11/02 00:33:13;;;;;;;6.50;1.30;;;17.10;57.40;;;;;;5029822;28;20052;-53
2022/11/02 00:35:45;;;;;;;5.43;1.75;;;17.00;57.40;;;;;;5030521;28;20480;-52
2022/11/02 00:38:12;;;;;;;2.60;1.30;;;17.00;57.50;;;;;;5043210;28;20053;-54
2022/11/02 00:40:39;;;;;;;3.03;1.10;;;17.00;57.50;;;;;;5053170;28;20543;-54
2022/11/02 00:43:10;;;;;;;4.03;1.02;;;16.90;57.50;;;;;;5046259;28;20041;-54
2022/11/02 00:45:37;;;;;;;5.70;1.10;;;16.90;57.60;;;;;;5031464;28;20045;-53
2022/11/02 00:48:04;;;;;;;7.80;1.92;;;16.90;57.70;;;;;;5041569;28;20069;-52
2022/11/02 00:50:38;;;;;;;8.00;1.50;;;16.80;57.80;;;;;;5053042;28;20123;-53
2022/11/02 00:53:07;;;;;;;4.10;1.20;;;16.80;57.80;;;;;;5038870;28;20092;-53
2022/11/02 00:55:41;;;;;;;6.87;2.60;;;16.80;58.00;;;;;;5042957;28;20045;-53
2022/11/02 00:58:09;;;;;;;5.18;2.03;;;16.70;58.00;;;;;;5050005;28;20049;-54
2022/11/02 01:00:38;;;;;;;7.28;1.45;;;16.70;58.10;;;;;;5050592;28;20132;-53
2022/11/02 01:03:05;;;;;;;6.82;1.45;;;16.60;58.10;;;;;;5030522;28;20048;-53
2022/11/02 01:05:31;;;;;;;5.72;1.70;;;16.60;58.30;;;;;;5040302;28;20059;-52
2022/11/02 01:08:00;;;;;;;4.43;1.40;;;16.60;58.30;;;;;;5043892;28;20047;-54
2022/11/02 01:10:30;;;;;;;7.10;1.30;;;16.60;58.50;;;;;;5047386;28;20040;-53
2022/11/02 01:13:16;;;;;;;8.38;1.70;;;16.50;58.60;;;;;;4999689;28;20088;-51
2022/11/02 01:16:03;;;;;;;7.55;2.30;;;16.50;58.80;;;;;;5004680;28;20072;-54
2022/11/02 01:18:32;;;;;;;4.57;1.27;;;16.50;58.90;;;;;;5029717;28;20060;-53
2022/11/02 01:21:09;;;;;;;6.00;1.73;;;16.50;59.00;;;;;;5032152;28;20054;-53
2022/11/02 01:23:38;;;;;;;7.40;1.67;;;16.60;59.00;;;;;;5035078;28;20164;-54
2022/11/02 01:26:11;;;;;;;4.70;1.33;;;16.50;59.00;;;;;;5043110;28;20041;-54
2022/11/02 01:28:41;;;;;;;4.45;1.83;;;16.60;59.00;;;;;;5051179;28;20055;-51
2022/11/02 01:31:11;;;;;;;4.50;1.35;;;16.60;59.00;;;;;;5039992;28;20044;-53
2022/11/02 01:33:43;;;;;;;8.63;1.60;;;16.50;58.90;;;;;;5039164;28;20048;-52
2022/11/02 01:36:12;;;;;;;2.92;1.85;;;16.50;59.00;;;;;;5048845;28;20080;-53
2022/11/02 01:38:40;;;;;;;6.25;1.83;;;16.50;59.10;;;;;;5030930;28;20679;-54
2022/11/02 01:41:12;;;;;;;5.13;1.90;;;16.50;59.20;;;;;;5026974;28;20128;-53
2022/11/02 01:43:47;;;;;;;4.90;2.00;;;16.50;59.40;;;;;;5034658;28;20133;-54
2022/11/02 01:46:28;;;;;;;3.83;1.90;;;16.50;59.40;;;;;;5037764;28;20052;-53
2022/11/02 01:49:02;;;;;;;4.55;1.70;;;16.50;59.50;;;;;;5049854;28;20131;-53
2022/11/02 01:51:38;;;;;;;5.10;1.80;;;16.50;59.70;;;;;;5035694;28;20041;-50
2022/11/02 01:54:28;;;;;;;6.75;2.55;;;16.50;59.60;;;;;;5044578;28;20524;-54
2022/11/02 01:57:03;;;;;;;5.75;1.38;;;16.50;59.60;;;;;;5030433;28;20069;-54
2022/11/02 01:59:45;;;;;;;7.68;1.70;;;16.50;59.60;;;;;;5021153;28;20048;-53
2022/11/02 02:02:17;;;;;;;9.23;1.98;;;16.50;59.60;;;;;;5045816;28;20067;-53
2022/11/02 02:04:51;;;;;;;7.30;1.38;;;16.50;59.70;;;;;;5047133;28;20045;-53
2022/11/02 02:07:18;;;;;;;4.68;1.75;;;16.40;59.70;;;;;;5051932;28;20041;-48
2022/11/02 02:09:47;;;;;;;4.22;1.17;;;16.40;59.80;;;;;;5031972;28;20425;-54
2022/11/02 02:12:18;;;;;;;5.45;1.30;;;16.50;59.90;;;;;;5038832;28;20087;-53
2022/11/02 02:14:48;;;;;;;3.60;1.67;;;16.40;59.90;;;;;;5029745;28;20053;-54
2022/11/02 02:17:22;;;;;;;6.38;1.48;;;16.50;59.90;;;;;;5030130;28;20045;-52
2022/11/02 02:20:46;;;;;;;4.60;1.70;;;16.50;60.00;;;;;;5029691;28;20121;-51
2022/11/02 02:23:31;;;;;;;3.95;1.35;;;16.50;60.00;;;;;;5005437;28;20083;-52
2022/11/02 02:26:38;;;;;;;4.32;1.70;;;16.60;59.90;;;;;;5043339;28;20065;-53
2022/11/02 02:29:15;;;;;;;6.57;1.45;;;16.60;59.70;;;;;;5035120;28;20038;-54
2022/11/02 02:32:01;;;;;;;6.25;1.80;;;16.50;59.50;;;;;;5042064;28;20041;-53
2022/11/02 02:34:36;;;;;;;6.78;1.77;;;16.50;59.70;;;;;;5010819;28;20037;-53
2022/11/02 02:37:16;;;;;;;8.32;2.47;;;16.40;59.50;;;;;;5016324;28;20050;-53
2022/11/02 02:39:59;;;;;;;4.75;1.35;;;16.40;59.80;;;;;;5036615;28;20398;-53
2022/11/02 02:42:48;;;;;;;6.25;1.80;;;16.30;59.90;;;;;;5036803;28;20562;-52
2022/11/02 02:46:06;;;;;;;4.18;1.52;;;16.30;60.00;;;;;;5050567;28;20087;-53
2022/11/02 02:48:36;;;;;;;4.13;1.25;;;16.20;60.00;;;;;;5034689;28;20087;-54
2022/11/02 02:51:11;;;;;;;6.15;1.67;;;16.20;59.90;;;;;;5041425;28;20052;-51
2022/11/02 02:53:43;;;;;;;5.60;1.40;;;16.10;60.10;;;;;;5043722;28;20049;-53
2022/11/02 02:56:20;;;;;;;6.55;1.70;;;16.10;60.20;;;;;;5029354;28;20068;-54
2022/11/02 02:58:55;;;;;;;5.18;1.50;;;16.00;60.10;;;;;;5038809;28;20037;-54
2022/11/02 03:01:23;;;;;;;4.88;1.63;;;16.00;60.20;;;;;;5035250;28;20045;-54
2022/11/02 03:03:55;;;;;;;8.82;2.35;;;16.00;60.30;;;;;;5046072;28;20051;-54
2022/11/02 03:06:26;;;;;;;7.03;1.58;;;15.90;60.20;;;;;;5037418;28;20038;-53
2022/11/02 03:09:00;;;;;;;4.70;1.80;;;15.90;60.30;;;;;;5037084;28;20451;-54
2022/11/02 03:11:29;;;;;;;3.92;1.38;;;15.90;60.40;;;;;;5048981;28;20092;-50
2022/11/02 03:14:06;;;;;;;3.20;1.13;;;15.90;60.40;;;;;;5032726;28;20617;-52
2022/11/02 03:16:42;;;;;;;7.05;1.38;;;15.80;60.20;;;;;;5031095;28;20513;-51
2022/11/02 03:19:19;;;;;;;4.75;1.83;;;15.80;60.20;;;;;;5045549;28;20116;-54
2022/11/02 03:21:54;;;;;;;8.73;1.33;;;15.80;60.20;;;;;;5020005;28;20046;-54
2022/11/02 03:24:27;;;;;;;6.50;1.50;;;15.80;60.30;;;;;;5036551;28;20033;-54
2022/11/02 03:27:29;;;;;;;4.47;1.25;;;15.80;60.40;;;;;;5046532;28;20075;-53
2022/11/02 03:30:18;;;;;;;3.08;1.02;;;15.70;60.30;;;;;;5025058;28;20125;-53
2022/11/02 03:33:06;;;;;;;6.22;1.55;;;15.70;60.40;;;;;;5030641;28;20034;-54
2022/11/02 03:35:48;;;;;;;4.03;1.63;;;15.70;60.50;;;;;;5039479;28;20047;-54
2022/11/02 03:38:36;;;;;;;5.70;1.80;;;15.70;60.40;;;;;;5039638;28;20041;-54
2022/11/02 03:41:03;;;;;;;6.25;1.38;;;15.70;60.60;;;;;;5048784;28;20068;-54
2022/11/02 03:43:34;;;;;;;5.65;2.38;;;15.70;60.50;;;;;;5024805;28;20041;-51
2022/11/02 03:46:05;;;;;;;7.13;2.47;;;15.70;60.60;;;;;;5036859;28;20045;-52
2022/11/02 03:48:47;;;;;;;6.22;1.50;;;15.70;60.60;;;;;;5042798;28;20079;-54
2022/11/02 03:51:21;;;;;;;3.03;1.27;;;15.70;60.80;;;;;;5029219;28;20033;-54
2022/11/02 03:53:52;;;;;;;5.80;1.30;;;15.70;60.80;;;;;;5031163;28;20128;-54
2022/11/02 03:56:36;;;;;;;5.55;1.33;;;15.70;60.80;;;;;;5036831;28;20185;-54
2022/11/02 03:59:03;;;;;;;3.03;1.10;;;15.70;61.00;;;;;;5032653;28;20051;-54
2022/11/02 04:01:37;;;;;;;6.45;1.60;;;15.60;60.80;;;;;;5030957;28;20559;-49
2022/11/02 04:04:04;;;;;;;3.70;1.35;;;15.60;60.90;;;;;;5044822;28;20044;-54
2022/11/02 04:06:35;;;;;;;2.42;1.13;;;15.60;60.80;;;;;;5030600;28;20099;-54
2022/11/02 04:09:03;;;;;;;10.02;2.25;;;15.60;60.80;;;;;;5043150;28;20037;-53
2022/11/02 04:14:36;;;;;;;3.05;1.30;;;15.60;60.80;;;;;;5049730;28;20041;-52
2022/11/02 04:19:59;;;;;;;7.38;1.63;;;15.60;60.80;;;;;;5025710;28;20042;-50
2022/11/02 04:25:19;;;;;;;3.60;1.25;;;15.60;60.90;;;;;;5040058;28;20056;-50
2022/11/02 04:28:06;;;;;;;3.95;1.60;;;15.60;60.90;;;;;;5032616;28;20065;-52
2022/11/02 04:30:36;;;;;;;3.42;1.33;;;15.60;60.90;;;;;;5031382;28;20040;-54
2022/11/02 04:36:06;;;;;;;3.13;1.08;;;15.50;60.80;;;;;;5052663;28;20060;-53
2022/11/02 04:38:39;;;;;;;5.30;1.20;;;15.50;60.90;;;;;;5036534;28;20046;-50
2022/11/02 04:44:03;;;;;;;6.72;1.63;;;15.50;60.80;;;;;;5049233;28;20103;-52
2022/11/02 04:46:32;;;;;;;6.85;1.67;;;15.50;60.80;;;;;;5046090;28;20041;-53
2022/11/02 04:49:00;;;;;;;6.90;1.88;;;15.50;60.90;;;;;;5026285;28;20045;-54
2022/11/02 04:51:30;;;;;;;5.00;1.75;;;15.40;60.80;;;;;;5043068;28;20567;-52
2022/11/02 04:53:57;;;;;;;3.63;1.08;;;15.40;60.90;;;;;;5047544;28;20079;-53
2022/11/02 04:56:27;;;;;;;4.68;1.17;;;15.40;60.90;;;;;;5043382;28;20521;-53
2022/11/02 04:59:00;;;;;;;4.80;1.50;;;15.40;61.00;;;;;;5045964;28;20099;-54
2022/11/02 05:01:29;;;;;;;5.25;1.60;;;15.40;61.00;;;;;;5045320;28;20057;-53
2022/11/02 05:03:58;;;;;;;7.55;1.60;;;15.40;60.90;;;;;;5047245;28;20037;-54
2022/11/02 05:06:28;;;;;;;4.85;1.35;;;15.40;60.90;;;;;;5039105;28;20103;-54
2022/11/02 05:08:55;;;;;;;4.13;1.25;;;15.30;60.90;;;;;;5036423;28;20045;-54
2022/11/02 05:11:24;;;;;;;8.05;1.80;;;15.30;60.80;;;;;;5027175;28;20049;-54
2022/11/02 05:13:56;;;;;;;6.15;1.92;;;15.30;60.90;;;;;;5050889;28;20395;-53
2022/11/02 05:16:24;;;;;;;7.88;2.13;;;15.30;60.90;;;;;;5044294;28;20132;-54
2022/11/02 05:18:53;;;;;;;5.28;1.17;;;15.30;61.00;;;;;;5030957;28;20061;-52
2022/11/02 05:21:23;;;;;;;5.32;2.10;;;15.30;60.90;;;;;;5030158;28;20247;-54
2022/11/02 05:23:52;;;;;;;6.28;1.55;;;15.20;60.80;;;;;;5037355;28;20049;-54
2022/11/02 05:26:19;;;;;;;13.07;2.22;;;15.20;60.90;;;;;;5024575;28;20068;-53
2022/11/02 05:28:51;;;;;;;5.70;2.35;;;15.20;60.90;;;;;;5034663;28;20041;-51
2022/11/02 05:31:19;;;;;;;5.50;1.63;;;15.20;60.90;;;;;;5035547;28;20425;-53
2022/11/02 05:33:47;;;;;;;4.10;2.55;;;15.20;60.90;;;;;;5049265;28;20041;-52
2022/11/02 05:36:17;;;;;;;11.10;3.60;;;15.20;60.90;;;;;;5038422;28;20041;-54
2022/11/02 05:38:47;;;;;;;8.88;3.03;;;15.10;60.90;;;;;;5033366;28;20065;-51
2022/11/02 05:41:16;;;;;;;8.30;2.63;;;15.10;60.90;;;;;;5015382;28;20464;-53
2022/11/02 05:43:44;;;;;;;7.85;1.95;;;15.10;61.00;;;;;;5025130;28;20042;-53
2022/11/02 05:46:15;;;;;;;6.20;1.70;;;15.10;61.00;;;;;;5052181;28;20049;-52
2022/11/02 05:48:42;;;;;;;7.53;2.40;;;15.10;60.90;;;;;;5043167;28;20055;-54
2022/11/02 05:51:09;;;;;;;8.00;1.80;;;15.10;60.90;;;;;;5033875;28;20132;-54
2022/11/02 05:53:37;;;;;;;9.70;2.58;;;15.00;60.90;;;;;;5029179;28;20413;-54
2022/11/02 05:56:06;;;;;;;6.47;1.70;;;15.00;60.90;;;;;;5031601;28;20038;-52
2022/11/02 05:58:32;;;;;;;5.38;1.77;;;15.00;60.90;;;;;;5041774;28;20045;-51
2022/11/02 06:01:04;;;;;;;3.45;1.13;;;15.00;60.90;;;;;;5044192;28;20034;-54
2022/11/02 06:03:31;;;;;;;7.07;1.95;;;15.00;61.00;;;;;;5029260;28;20088;-51
2022/11/02 06:05:59;;;;;;;7.22;1.95;;;15.00;61.00;;;;;;5035433;28;20056;-52
2022/11/02 06:08:27;;;;;;;8.13;1.90;;;15.00;61.00;;;;;;5037726;28;20056;-52
2022/11/02 06:10:53;;;;;;;6.85;1.90;;;15.00;61.00;;;;;;5025395;28;20049;-53
2022/11/02 06:13:20;;;;;;;5.20;1.63;;;14.90;61.00;;;;;;5039003;28;20131;-52
2022/11/02 06:15:47;;;;;;;8.07;1.98;;;14.90;61.10;;;;;;5040573;28;20045;-54
2022/11/02 06:18:14;;;;;;;9.38;1.77;;;14.90;61.10;;;;;;5030221;28;20041;-54
2022/11/02 06:20:45;;;;;;;8.38;1.70;;;14.90;61.20;;;;;;5024359;28;20046;-54
2022/11/02 06:23:13;;;;;;;4.80;1.58;;;14.90;61.20;;;;;;5025161;28;20045;-52
2022/11/02 06:25:40;;;;;;;6.50;1.92;;;14.90;61.30;;;;;;5022297;28;20081;-49
2022/11/02 06:28:06;;;;;;;4.97;1.50;;;14.90;61.40;;;;;;5039585;28;20065;-53
2022/11/02 06:30:33;;;;;;;3.83;1.38;;;14.90;61.40;;;;;;5048174;28;20040;-51
2022/11/02 06:33:00;;;;;;;7.72;1.45;;;14.90;61.50;;;;;;5031526;28;20045;-54
2022/11/02 06:35:31;;;;;;;5.15;1.70;;;14.90;61.50;;;;;;5038370;28;20091;-54
2022/11/02 06:37:58;;;;;;;7.53;2.08;;;14.90;61.60;;;;;;5029774;28;20045;-54
2022/11/02 06:40:25;;;;;;;6.22;1.77;;;14.90;61.60;;;;;;5027357;28;20505;-53
2022/11/02 06:42:56;;;;;;;7.43;1.42;;;14.90;61.60;;;;;;5030276;28;20073;-54
2022/11/02 06:45:44;;;;;;;5.60;1.50;;;14.90;61.60;;;;;;5038115;28;20068;-54
2022/11/02 06:48:10;;;;;;;5.45;2.05;;;14.90;62.00;;;;;;5029792;28;20433;-54
2022/11/02 06:50:37;;;;;;;11.57;2.03;;;14.90;61.40;;;;;;5032317;28;20064;-52
2022/11/02 06:53:03;;;;;;;5.15;1.75;;;14.90;61.40;;;;;;5044823;28;20501;-53
2022/11/02 06:55:31;;;;;;;7.18;1.83;;;14.90;61.30;;;;;;5043000;28;20047;-53
2022/11/02 06:57:57;;;;;;;6.50;1.55;;;14.90;61.40;;;;;;5044127;28;20034;-54
2022/11/02 07:00:24;;;;;;;4.88;1.45;;;14.90;61.40;;;;;;5031612;28;20033;-51
2022/11/02 07:03:02;;;;;;;7.40;2.13;;;14.90;61.40;;;;;;5039797;28;20044;-54
2022/11/02 07:05:29;;;;;;;6.43;1.65;;;14.90;61.50;;;;;;5015703;28;20486;-54
2022/11/02 07:07:56;;;;;;;5.22;1.63;;;14.90;61.40;;;;;;5027106;28;20042;-54
2022/11/02 07:10:23;;;;;;;3.60;1.65;;;14.80;61.40;;;;;;5040192;28;20036;-52
2022/11/02 07:12:54;;;;;;;6.45;2.22;;;14.80;61.50;;;;;;5039567;28;20049;-54
2022/11/02 07:15:22;;;;;;;8.85;2.85;;;14.80;61.60;;;;;;5048164;28;20508;-51
2022/11/02 07:17:51;;;;;;;6.45;1.17;;;14.80;61.60;;;;;;5024800;28;20033;-54
2022/11/02 07:20:18;;;;;;;6.50;1.40;;;14.90;61.70;;;;;;5024497;28;20056;-54
2022/11/02 07:22:59;;;;;;;7.05;1.92;;;14.90;61.70;;;;;;5026982;28;20707;-53
2022/11/02 07:25:31;;;;;;;5.18;1.35;;;14.90;61.60;;;;;;5030062;28;20441;-54
2022/11/02 07:27:59;;;;;;;6.18;1.90;;;14.90;61.50;;;;;;5010016;28;20052;-54
2022/11/02 07:30:27;;;;;;;5.82;1.77;;;14.90;61.40;;;;;;5018260;28;20033;-53
2022/11/02 07:32:54;;;;;;;6.88;1.63;;;14.90;61.40;;;;;;5038735;28;20670;-53
2022/11/02 07:35:21;;;;;;;8.50;1.60;;;14.90;61.40;;;;;;5042404;28;20461;-54
2022/11/02 07:37:59;;;;;;;5.38;1.40;;;14.90;61.50;;;;;;5032652;28;20081;-54
2022/11/02 07:40:27;;;;;;;5.32;1.45;;;14.90;61.60;;;;;;5035779;28;20132;-54
2022/11/02 07:42:56;;;;;;;5.88;1.60;;;14.90;61.50;;;;;;5045605;28;20373;-53
2022/11/02 07:45:35;;;;;;;8.33;2.67;;;14.90;61.60;;;;;;5039229;28;20038;-54
2022/11/02 07:48:02;;;;;;;5.55;1.10;;;14.90;61.60;;;;;;5038337;28;20041;-54
2022/11/02 07:50:31;;;;;;;6.13;1.83;;;14.90;61.60;;;;;;5038925;28;20037;-53
2022/11/02 07:52:58;;;;;;;7.22;1.88;;;14.90;61.60;;;;;;5049117;28;20124;-52
2022/11/02 07:55:29;;;;;;;6.95;1.75;;;14.90;61.60;;;;;;5031178;28;20034;-54
2022/11/02 07:57:58;;;;;;;10.40;2.25;;;14.90;61.70;;;;;;5022814;28;20054;-52
2022/11/02 08:00:27;;;;;;;6.65;2.63;;;15.00;61.70;;;;;;5033118;28;20041;-54
2022/11/02 08:02:56;;;;;;;6.53;2.47;;;15.00;61.80;;;;;;5037869;28;20402;-54
2022/11/02 08:05:24;;;;;;;9.52;3.20;;;15.00;61.70;;;;;;5050673;28;20171;-54
2022/11/02 08:08:02;;;;;;;6.45;1.90;;;15.00;61.70;;;;;;5036960;28;20045;-53
2022/11/02 08:10:30;;;;;;;8.38;2.55;;;15.00;61.90;;;;;;5036562;28;20033;-52
2022/11/02 08:13:05;;;;;;;8.02;1.83;;;15.00;61.70;;;;;;5047125;28;20045;-53
2022/11/02 08:15:31;;;;;;;8.82;2.85;;;15.00;61.70;;;;;;5036391;28;20094;-51
2022/11/02 08:18:20;;;;;;;8.05;1.63;;;15.00;61.70;;;;;;5047449;28;20069;-51
2022/11/02 08:20:47;;;;;;;7.32;2.20;;;15.10;61.90;;;;;;5046704;28;20056;-52
2022/11/02 08:23:16;;;;;;;5.13;1.40;;;15.10;61.80;;;;;;5037072;28;20053;-53
2022/11/02 08:25:44;;;;;;;3.85;1.77;;;15.10;61.80;;;;;;5035115;28;20127;-53
2022/11/02 08:28:20;;;;;;;11.43;2.38;;;15.10;61.80;;;;;;5034609;28;20069;-53
2022/11/02 08:30:47;;;;;;;6.32;2.28;;;15.10;61.70;;;;;;5041251;28;20106;-54
2022/11/02 08:33:15;;;;;;;6.00;1.90;;;15.20;61.80;;;;;;5041786;28;20045;-54
2022/11/02 08:35:44;;;;;;;6.03;1.45;;;15.20;61.80;;;;;;5042010;28;20525;-52
2022/11/02 08:38:11;;;;;;;9.07;1.90;;;15.20;61.80;;;;;;5040239;28;20056;-53
2022/11/02 08:40:38;;;;;;;7.32;2.08;;;15.20;61.60;;;;;;5040163;28;20560;-54
2022/11/02 08:43:13;;;;;;;7.78;2.20;;;15.20;61.60;;;;;;5024952;28;20061;-54
2022/11/02 08:45:42;;;;;;;6.95;1.67;;;15.30;61.80;;;;;;5054694;28;20044;-54
2022/11/02 08:48:29;;;;;;;6.63;2.45;;;15.30;61.70;;;;;;5039095;28;20045;-54
2022/11/02 08:50:55;;;;;;;13.00;2.55;;;15.30;61.70;;;;;;5052354;28;20533;-53
2022/11/02 08:53:22;;;;;;;7.38;1.85;;;15.30;61.60;;;;;;5033666;28;20051;-54
2022/11/02 08:55:49;;;;;;;9.88;2.10;;;15.30;61.60;;;;;;5038060;28;20052;-52
2022/11/02 08:58:16;;;;;;;11.00;1.70;;;15.30;61.40;;;;;;5040517;28;20037;-54
2022/11/02 09:00:43;;;;;;;9.15;2.20;;;15.40;61.40;;;;;;5031922;28;20061;-53
2022/11/02 09:03:12;;;;;;;6.95;1.73;;;15.30;61.30;;;;;;5035598;28;20053;-54
2022/11/02 09:05:44;;;;;;;5.82;1.67;;;15.40;61.30;;;;;;5052961;28;20052;-55
2022/11/02 09:08:13;;;;;;;8.20;1.50;;;15.50;61.30;;;;;;5036723;28;20073;-53
2022/11/02 09:10:39;;;;;;;8.85;2.10;;;15.50;61.30;;;;;;5040220;28;20112;-53
2022/11/02 09:13:10;;;;;;;10.40;2.38;;;15.50;61.40;;;;;;5033224;28;20493;-53
2022/11/02 09:15:37;;;;;;;5.95;1.55;;;15.50;61.30;;;;;;5044121;28;20501;-54
2022/11/02 09:18:05;;;;;;;8.50;1.73;;;15.50;61.50;;;;;;5030666;28;20099;-54
2022/11/02 09:20:33;;;;;;;8.82;2.38;;;15.50;61.40;;;;;;5031772;28;20053;-54
2022/11/02 09:23:00;;;;;;;7.70;1.85;;;15.60;61.40;;;;;;5045958;28;20538;-54
2022/11/02 09:25:27;;;;;;;7.65;1.77;;;15.60;61.20;;;;;;5032843;28;20490;-53
2022/11/02 09:27:55;;;;;;;7.97;2.25;;;15.60;61.10;;;;;;5025988;28;20042;-54
2022/11/02 09:30:24;;;;;;;5.63;1.65;;;15.70;61.00;;;;;;5033467;28;20036;-54
2022/11/02 09:33:00;;;;;;;5.20;2.13;;;15.60;60.80;;;;;;5041666;28;20052;-52
2022/11/02 09:35:30;;;;;;;7.72;1.58;;;15.70;60.90;;;;;;5030959;28;20056;-53
2022/11/02 09:37:57;;;;;;;8.05;2.38;;;15.70;60.90;;;;;;5030020;28;20072;-54
2022/11/02 09:40:30;;;;;;;10.40;1.95;;;15.70;60.90;;;;;;5035653;28;20044;-54
2022/11/02 09:43:27;;;;;;;7.00;2.75;;;15.80;61.00;;;;;;5040966;28;20051;-54
2022/11/02 09:46:08;;;;;;;9.10;1.90;;;15.80;60.60;;;;;;5040630;28;20124;-52
2022/11/02 09:48:51;;;;;;;6.22;2.35;;;15.90;60.00;;;;;;5039611;28;20121;-54
2022/11/02 09:51:40;;;;;;;5.93;1.80;;;15.90;60.60;;;;;;5044592;28;20688;-50
2022/11/02 09:54:42;;;;;;;6.53;1.83;;;15.90;59.60;;;;;;5049944;28;20121;-54
2022/11/02 09:57:13;;;;;;;8.13;1.65;;;15.90;59.60;;;;;;5023822;28;20532;-51
2022/11/02 09:59:40;;;;;;;9.32;2.30;;;16.00;59.60;;;;;;5035414;28;20770;-53
2022/11/02 10:02:36;;;;;;;7.28;1.45;;;15.90;59.80;;;;;;5041896;28;20041;-52
2022/11/02 10:05:17;;;;;;;5.43;2.30;;;16.00;59.60;;;;;;5033648;28;20517;-54
2022/11/02 10:08:31;;;;;;;8.32;1.98;;;16.10;59.60;;;;;;5029493;28;20048;-50
2022/11/02 10:11:23;;;;;;;7.82;2.38;;;16.00;58.40;;;;;;5037497;28;20037;-50
2022/11/02 10:14:01;;;;;;;6.47;1.63;;;16.00;58.60;;;;;;5044723;28;20100;-54
2022/11/02 10:16:36;;;;;;;5.10;1.90;;;16.00;58.90;;;;;;5027229;28;20378;-51
2022/11/02 10:19:12;;;;;;;7.05;1.70;;;16.10;58.70;;;;;;5045885;28;20623;-52
2022/11/02 10:21:44;;;;;;;6.45;1.40;;;16.10;58.90;;;;;;5030857;28;20055;-53
2022/11/02 10:24:27;;;;;;;6.40;2.45;;;16.10;58.80;;;;;;5023485;28;20077;-50
2022/11/02 10:27:03;;;;;;;9.50;1.92;;;16.10;58.50;;;;;;5033471;28;20037;-53
2022/11/02 10:29:33;;;;;;;6.68;1.63;;;16.10;58.80;;;;;;5031475;28;20064;-51
2022/11/02 10:32:01;;;;;;;5.50;1.50;;;16.10;59.10;;;;;;5047943;28;20605;-50
2022/11/02 10:34:29;;;;;;;4.28;1.90;;;16.20;58.40;;;;;;5043376;28;20033;-50
2022/11/02 10:37:17;;;;;;;8.00;1.45;;;16.20;58.20;;;;;;5043461;28;20045;-52
2022/11/02 10:39:44;;;;;;;6.93;1.70;;;16.20;57.90;;;;;;5046308;28;20045;-50
2022/11/02 10:42:33;;;;;;;6.88;1.30;;;16.30;58.10;;;;;;5041231;28;20045;-52
2022/11/02 10:45:28;;;;;;;7.85;1.88;;;16.30;58.00;;;;;;5032709;28;20077;-54
2022/11/02 10:48:15;;;;;;;5.18;1.17;;;16.30;57.80;;;;;;5040345;28;20545;-51
2022/11/02 10:50:46;;;;;;;5.90;1.52;;;16.30;57.60;;;;;;5050733;28;20045;-54
2022/11/02 10:53:19;;;;;;;8.30;2.10;;;16.30;57.80;;;;;;5038087;28;20064;-54
2022/11/02 10:56:10;;;;;;;4.53;1.45;;;16.40;57.80;;;;;;5041272;28;20041;-53
2022/11/02 10:58:42;;;;;;;5.75;1.58;;;16.40;57.50;;;;;;5044458;28;20470;-50
2022/11/02 11:01:11;;;;;;;7.50;1.90;;;16.40;57.40;;;;;;5043377;22;20057;-48
2022/11/02 11:03:58;;;;;;;5.82;2.00;;;16.50;57.20;;;;;;5037164;28;20065;-47
2022/11/02 11:06:36;;;;;;;8.18;2.03;;;16.50;57.60;;;;;;5023853;28;20136;-48
2022/11/02 11:09:16;;;;;;;4.25;1.20;;;16.50;57.20;;;;;;5047649;28;20043;-48
2022/11/02 11:11:56;;;;;;;10.02;1.55;;;16.60;57.20;;;;;;5039343;28;20049;-49
2022/11/02 11:14:28;;;;;;;8.32;2.45;;;16.60;56.50;;;;;;5027075;28;20033;-47
2022/11/02 11:17:30;;;;;;;8.02;1.70;;;16.70;57.20;;;;;;5025756;28;20041;-47
2022/11/02 11:20:35;;;;;;;9.52;1.70;;;16.80;57.10;;;;;;5041766;28;20566;-47
2022/11/02 11:23:07;;;;;;;9.10;2.45;;;16.80;57.00;;;;;;5033486;28;20056;-47
2022/11/02 11:25:38;;;;;;;12.68;2.20;;;16.90;56.90;;;;;;5035309;28;20512;-47
2022/11/02 11:28:21;;;;;;;9.82;2.25;;;16.90;57.00;;;;;;5032286;28;20397;-47
2022/11/02 11:31:05;;;;;;;4.30;1.80;;;17.00;56.90;;;;;;5037038;28;20045;-47
2022/11/02 11:33:40;;;;;;;6.78;1.45;;;17.10;56.50;;;;;;5027195;28;20099;-48
2022/11/02 11:36:09;;;;;;;8.27;1.65;;;17.20;56.30;;;;;;5036397;28;20033;-47
2022/11/02 11:38:43;;;;;;;7.35;1.60;;;17.20;56.00;;;;;;5041872;28;20049;-47
2022/11/02 11:41:11;;;;;;;6.78;1.83;;;17.20;56.10;;;;;;5035223;28;20074;-46
2022/11/02 11:43:41;;;;;;;7.15;1.73;;;17.20;55.70;;;;;;5036710;28;20494;-47
2022/11/02 11:46:12;;;;;;;6.82;1.70;;;17.20;55.80;;;;;;5034233;28;20065;-47
2022/11/02 11:48:40;;;;;;;6.10;1.88;;;17.20;55.90;;;;;;5027814;28;20539;-47
2022/11/02 11:51:40;;;;;;;8.25;2.78;;;17.20;56.20;;;;;;5029762;28;20121;-47
2022/11/02 11:54:25;;;;;;;8.15;2.05;;;17.20;56.00;;;;;;5036634;28;20033;-47
2022/11/02 11:56:58;;;;;;;5.85;1.70;;;17.20;56.20;;;;;;5026459;28;20506;-48
2022/11/02 11:59:43;;;;;;;6.53;2.33;;;17.20;56.10;;;;;;5034701;28;20065;-46
2022/11/02 12:02:25;;;;;;;6.60;2.30;;;17.20;56.10;;;;;;5042448;28;20721;-50
2022/11/02 12:05:13;;;;;;;5.95;1.58;;;17.30;56.00;;;;;;5046702;28;20409;-48
2022/11/02 12:08:09;;;;;;;8.00;2.20;;;17.30;56.50;;;;;;5048954;28;20041;-47
2022/11/02 12:11:18;;;;;;;8.38;1.63;;;17.30;56.60;;;;;;5027706;28;20600;-49
2022/11/02 12:13:54;;;;;;;8.35;1.60;;;17.40;56.40;;;;;;5041317;28;20386;-48
2022/11/02 12:16:36;;;;;;;5.20;1.77;;;17.40;56.40;;;;;;5043682;28;20044;-47
2022/11/02 12:19:09;;;;;;;10.85;2.35;;;17.50;56.00;;;;;;5034690;28;20064;-52
2022/11/02 12:21:47;;;;;;;11.98;2.92;;;17.60;55.60;;;;;;5043518;28;20041;-48
2022/11/02 12:24:43;;;;;;;6.18;1.95;;;17.70;55.50;;;;;;5052001;28;20094;-50
2022/11/02 12:27:37;;;;;;;8.80;2.15;;;17.80;55.30;;;;;;5042077;28;20784;-49
2022/11/02 12:30:23;;;;;;;7.85;2.03;;;17.90;55.20;;;;;;5026645;28;20113;-47
2022/11/02 12:33:32;;;;;;;4.10;1.33;;;17.90;55.10;;;;;;5040549;28;20045;-50
2022/11/02 12:36:04;;;;;;;6.43;1.80;;;18.00;54.60;;;;;;5030629;28;20040;-50
2022/11/02 12:38:37;;;;;;;3.35;1.55;;;18.00;54.70;;;;;;5029578;28;20044;-48
2022/11/02 12:41:11;;;;;;;11.07;2.85;;;18.10;54.80;;;;;;5045586;28;20045;-49
2022/11/02 12:43:44;;;;;;;7.70;1.40;;;18.20;54.60;;;;;;5031895;28;20057;-47
2022/11/02 12:46:48;;;;;;;6.03;1.70;;;18.20;54.80;;;;;;5035194;28;20057;-49
2022/11/02 12:49:46;;;;;;;4.93;1.17;;;18.30;54.10;;;;;;5043842;28;20452;-49
2022/11/02 12:52:25;;;;;;;8.85;2.20;;;18.40;54.50;;;;;;5044843;28;20069;-49
2022/11/02 12:54:58;;;;;;;10.40;3.50;;;18.50;54.60;;;;;;5038700;28;20402;-51
2022/11/02 12:57:29;;;;;;;7.75;1.90;;;18.60;54.40;;;;;;5035946;28;20061;-48
2022/11/02 13:00:14;;;;;;;5.10;1.70;;;18.70;53.60;;;;;;5039970;28;20611;-48
2022/11/02 13:03:05;;;;;;;10.40;1.77;;;18.80;53.20;;;;;;5011770;28;20410;-48
2022/11/02 13:05:38;;;;;;;6.40;2.15;;;18.80;52.80;;;;;;5031295;28;20041;-49
2022/11/02 13:09:05;;;;;;;7.63;1.55;;;18.80;52.70;;;;;;5042202;28;20136;-47
2022/11/02 13:11:41;;;;;;;7.10;2.17;;;18.80;52.50;;;;;;5009173;28;20119;-49
2022/11/02 13:14:18;;;;;;;7.80;2.85;;;18.70;53.20;;;;;;4994056;28;20121;-49
2022/11/02 13:16:56;;;;;;;7.18;1.48;;;18.70;52.40;;;;;;5029627;28;20055;-48
2022/11/02 13:19:32;;;;;;;5.10;1.73;;;18.70;52.60;;;;;;5033818;28;20112;-47
2022/11/02 13:22:01;;;;;;;7.43;2.38;;;18.70;52.50;;;;;;5028711;28;20061;-49
2022/11/02 13:24:39;;;;;;;6.50;1.92;;;18.70;52.60;;;;;;5028597;28;20049;-49
2022/11/02 13:27:13;;;;;;;4.68;1.58;;;18.70;52.10;;;;;;5031800;28;20034;-52
2022/11/02 13:30:08;;;;;;;6.18;1.30;;;18.70;52.60;;;;;;5029298;28;20040;-50
2022/11/02 13:32:42;;;;;;;7.70;2.38;;;18.70;52.50;;;;;;5027233;28;20397;-48
2022/11/02 13:35:17;;;;;;;4.30;1.52;;;18.60;52.30;;;;;;5029960;28;20044;-50
2022/11/02 13:37:50;;;;;;;5.03;1.52;;;18.60;52.40;;;;;;5032337;28;20371;-52